首页
METAR-TAF:

METAR-TAF

机场 :

奧爾托國際機場

拉巴斯, 玻利维亚

纬度: 16-31S, 经度: 068-11W, 海拔: 4058米

当前天气观测

该预报发布于1小时和6分钟前的00:00 UTC
风速4节,风向北转东北
温度 9°C
湿度 61%
气压 1033 hPa
能见度10公里或以上
少量云层高于1500英尺
散云层高于7000英尺
多云层高于20000英尺

METAR: SLLP 130000Z 03004KT 9999 FEW015 SCT070 BKN200 09/02 Q1033

时间: 21:06 (01:06 UTC)

预报

该预报发布于3小时和6分钟前的22:00 UTC
预报有效从13日的 00点(UTC)到 13日的 24点(UTC)
风速5节,风向东转东北
能见度10公里或以上
少量云层高于1500英尺
少量云层高于1700英尺, 积雨云.
散云层高于7000英尺
几率 40% :
短暂存在
从 13日的 03点(UTC)到 13日的 06点(UTC)
能見度: 8000
成为
从 13日的 07点(UTC)到 13日的 09点(UTC)
能見度: 3000
少量云层高于200英尺
附近有雾
成为
从 13日的 12点(UTC)到 13日的 14点(UTC)
能见度10公里或以上
散云层高于1700英尺
短暂存在
从 13日的 18点(UTC)到 13日的 21点(UTC)
风速13节,风向北转东北
能見度: 7000
少量云层高于2000英尺, 积雨云.
雷暴, 雨

TAF: SLLP 122200Z 1300/1324 07005KT 9999 FEW015 FEW017CB SCT070 TX16/ 1320Z TN03/1310Z PROB40 TEMPO 1303/1306 8000 RA BECMG 1307/1309 3000E VCFG FEW002 BECMG 1312/1314 9999 NSW SCT017 TEMPO 1318/1321 03013KT 7000 TSRA FEW020CB

超过4000个机场的气象观测和天气预报(METAR&TAF报告)。

可查询的气象台以黄色和红色小点在地图上表示。

将鼠标移到小点上方,可查看气象台名称。

然后点击查看天气观测和预报。

如需切换地图:点击带黑十字的绿色按钮放大地图;点击带横线的绿色按钮缩小地图;或者点击绿色箭头查看邻近地区的地图。


METAR-TAF: